createdAt,value
2023-01-01T00:01:30.196Z,99853.00
2023-01-01T00:03:59.504Z,99801.06
2023-01-01T00:06:26.997Z,99861.78
2023-01-01T00:09:14.702Z,99860.91
2023-01-01T00:11:42.095Z,99850.25
2023-01-01T00:14:12.484Z,99846.09
2023-01-01T00:16:40.382Z,99854.59
2023-01-01T00:19:09.336Z,99837.91
2023-01-01T00:21:36.797Z,99790.50
2023-01-01T00:24:04.415Z,99862.63
2023-01-01T00:26:35.321Z,99853.78
2023-01-01T00:29:03.222Z,99851.97
2023-01-01T00:31:30.912Z,99784.25
2023-01-01T00:33:58.471Z,99851.03
2023-01-01T00:36:27.725Z,99850.19
2023-01-01T00:38:55.454Z,99833.69
2023-01-01T00:41:22.949Z,99854.53
2023-01-01T00:43:50.313Z,99847.47
2023-01-01T00:46:17.739Z,99813.53
2023-01-01T00:48:45.189Z,99803.75
2023-01-01T00:51:12.655Z,99846.59
2023-01-01T00:53:41.408Z,99856.25
2023-01-01T00:56:08.976Z,99845.69
2023-01-01T00:58:36.395Z,99861.53
2023-01-01T01:01:03.991Z,99858.91
2023-01-01T01:03:31.504Z,99860.59
2023-01-01T01:05:59.260Z,99859.72
2023-01-01T01:08:30.702Z,99862.38
2023-01-01T01:11:06.325Z,99794.72
2023-01-01T01:13:33.814Z,99855.31
2023-01-01T01:16:01.199Z,99872.84
2023-01-01T01:18:28.575Z,99879.88
2023-01-01T01:20:56.005Z,99886.06
2023-01-01T01:23:23.362Z,99872.84
2023-01-01T01:25:50.747Z,99873.72
2023-01-01T01:28:19.428Z,99882.50
2023-01-01T01:30:46.853Z,99876.28
2023-01-01T01:33:14.230Z,99881.56
2023-01-01T01:35:41.613Z,99877.16
2023-01-01T01:38:08.974Z,99874.50
2023-01-01T01:40:36.361Z,99875.41
2023-01-01T01:43:03.726Z,99866.56
2023-01-01T01:45:33.568Z,99875.34
2023-01-01T01:48:01.115Z,99870.06
2023-01-01T01:50:29.832Z,99864.75
2023-01-01T01:53:01.025Z,99796.41
2023-01-01T01:55:28.571Z,99798.28
2023-01-01T01:57:55.942Z,99790.81
2023-01-01T02:00:23.844Z,99860.34
2023-01-01T02:02:54.743Z,99876.19
2023-01-01T02:05:22.131Z,99868.28
2023-01-01T02:07:49.516Z,99871.78
2023-01-01T02:10:16.933Z,99870.84
2023-01-01T02:12:44.315Z,99877.06
2023-01-01T02:15:11.751Z,99811.22
2023-01-01T02:17:41.635Z,99889.34
2023-01-01T02:20:26.534Z,99876.13
2023-01-01T02:23:04.691Z,99891.13
2023-01-01T02:25:36.232Z,99890.28
2023-01-01T02:28:07.150Z,99873.63
2023-01-01T02:30:35.852Z,99889.34
2023-01-01T02:33:04.309Z,99827.25
2023-01-01T02:35:36.066Z,99896.41
2023-01-01T02:38:06.707Z,99891.97
2023-01-01T02:40:34.377Z,99894.53
2023-01-01T02:43:01.754Z,99893.69
2023-01-01T02:45:29.111Z,99894.53
2023-01-01T02:47:57.779Z,99864.06
2023-01-01T02:50:26.142Z,99883.25
2023-01-01T02:52:59.638Z,99832.44
2023-01-01T02:55:30.606Z,99905.94
2023-01-01T02:58:20.770Z,99907.75
2023-01-01T03:00:47.361Z,99886.69
2023-01-01T03:03:18.984Z,99906.91
2023-01-01T03:06:07.405Z,99898.97
2023-01-01T03:08:38.741Z,99905.13
2023-01-01T03:11:07.888Z,99885.31
2023-01-01T03:13:37.553Z,99901.53
2023-01-01T03:16:06.353Z,99906.81
2023-01-01T03:18:37.649Z,99901.53
2023-01-01T03:21:05.753Z,99898.53
2023-01-01T03:23:36.535Z,99912.03
2023-01-01T03:26:06.111Z,99902.31
2023-01-01T03:28:34.885Z,99906.72
2023-01-01T03:31:02.315Z,99838.91
2023-01-01T03:33:31.834Z,99895.22
2023-01-01T03:36:01.695Z,99889.66
2023-01-01T03:38:30.794Z,99904.94
2023-01-01T03:41:01.025Z,99855.50
2023-01-01T03:43:32.963Z,99893.50
2023-01-01T03:46:00.386Z,99901.44
2023-01-01T03:48:27.744Z,99890.28
2023-01-01T03:50:59.835Z,99866.28
2023-01-01T03:53:30.879Z,99914.59
2023-01-01T03:56:01.419Z,99922.50
2023-01-01T03:58:32.656Z,99915.44
2023-01-01T04:01:03.833Z,99912.81
2023-01-01T04:03:31.419Z,99903.13
2023-01-01T04:06:00.127Z,99908.34
2023-01-01T04:08:27.562Z,99923.38
2023-01-01T04:10:57.498Z,99862.91
2023-01-01T04:13:24.877Z,99936.59
2023-01-01T04:15:52.405Z,99936.59
2023-01-01T04:18:19.851Z,99934.78
2023-01-01T04:20:47.225Z,99940.06
2023-01-01T04:23:15.909Z,99925.16
2023-01-01T04:25:43.291Z,99939.25
2023-01-01T04:28:10.689Z,99939.25
2023-01-01T04:33:04.447Z,99940.94
2023-01-01T04:35:31.834Z,99941.81
2023-01-01T04:38:00.548Z,99933.00
2023-01-01T04:40:29.235Z,99938.63
2023-01-01T04:42:56.623Z,99938.38
2023-01-01T04:45:24.029Z,99936.59
2023-01-01T04:47:51.464Z,99933.00
2023-01-01T04:50:18.832Z,99940.06
2023-01-01T04:52:46.335Z,99940.06
2023-01-01T04:55:13.740Z,99948.88
2023-01-01T04:57:42.489Z,99957.66
2023-01-01T05:00:10.607Z,99958.50
2023-01-01T05:02:38.060Z,99956.25
2023-01-01T05:05:05.932Z,99969.06
2023-01-01T05:07:33.955Z,99971.72
2023-01-01T05:10:01.385Z,99953.22
2023-01-01T05:12:30.552Z,99965.75
2023-01-01T05:14:59.256Z,99963.78
2023-01-01T05:17:26.653Z,99962.00
2023-01-01T05:19:54.033Z,99965.50
2023-01-01T05:22:21.413Z,99969.94
2023-01-01T05:24:48.802Z,99969.06
2023-01-01T05:27:16.176Z,99985.81
2023-01-01T05:29:43.560Z,99984.94
2023-01-01T05:37:04.974Z,99987.50
2023-01-01T05:39:32.359Z,99980.50
2023-01-01T05:41:59.767Z,99996.38
2023-01-01T05:44:27.156Z,99986.66
2023-01-01T05:46:54.532Z,100008.66
2023-01-01T05:49:23.214Z,99998.22
2023-01-01T05:51:50.596Z,100020.97
2023-01-01T05:56:44.499Z,100024.44
2023-01-01T05:59:12.074Z,100023.75
2023-01-01T06:01:45.534Z,100022.66
2023-01-01T06:06:34.893Z,100009.59
2023-01-01T06:09:03.101Z,99915.03
2023-01-01T06:11:30.543Z,100022.75
2023-01-01T06:13:58.953Z,99959.41
2023-01-01T06:16:26.722Z,100012.16
2023-01-01T06:18:54.266Z,100016.59
2023-01-01T06:21:22.544Z,99979.53
2023-01-01T06:23:51.249Z,100015.66
2023-01-01T06:26:19.521Z,100030.66
2023-01-01T06:28:46.929Z,100036.75
2023-01-01T06:31:16.226Z,100025.34
2023-01-01T06:33:43.807Z,100043.88
2023-01-01T06:36:12.306Z,100058.81
2023-01-01T06:38:41.158Z,100064.97
2023-01-01T06:41:12.224Z,100000.59
2023-01-01T06:43:39.611Z,100053.53
2023-01-01T06:46:07.813Z,100031.28
2023-01-01T06:48:37.317Z,99982.19
2023-01-01T06:51:08.903Z,100042.94
2023-01-01T06:53:36.451Z,99989.34
2023-01-01T06:56:03.854Z,100053.53
2023-01-01T06:58:32.641Z,100072.03
2023-01-01T07:01:08.507Z,100078.19
2023-01-01T07:03:36.400Z,100090.53
2023-01-01T07:06:03.825Z,100003.69
2023-01-01T07:08:31.236Z,100074.81
2023-01-01T07:10:58.663Z,100089.69
2023-01-01T07:13:26.101Z,100091.41
2023-01-01T07:15:54.846Z,100085.41
2023-01-01T07:18:22.578Z,100091.41
2023-01-01T07:20:50.610Z,100101.13
2023-01-01T07:23:18.011Z,100120.50
2023-01-01T07:25:45.395Z,100103.63
2023-01-01T07:28:13.105Z,100124.00
2023-01-01T07:30:40.501Z,100131.94
2023-01-01T07:33:11.238Z,100134.56
2023-01-01T07:35:38.657Z,100146.84
2023-01-01T07:38:06.046Z,100138.59
2023-01-01T07:40:33.501Z,100091.47
2023-01-01T07:43:00.880Z,100169.84
2023-01-01T07:45:28.462Z,100179.53
2023-01-01T07:47:56.708Z,100089.56
2023-01-01T07:50:26.168Z,100130.50
2023-01-01T07:52:53.555Z,100164.56
2023-01-01T07:55:21.116Z,100133.06
2023-01-01T07:57:48.629Z,100091.75
2023-01-01T08:00:17.136Z,100102.91
2023-01-01T08:02:44.702Z,100101.09
2023-01-01T08:05:12.216Z,100170.66
2023-01-01T08:07:40.919Z,100171.50
2023-01-01T08:10:09.620Z,100173.28
2023-01-01T08:12:37.005Z,100186.50
2023-01-01T08:15:04.614Z,100178.59
2023-01-01T08:17:32.021Z,100178.59
2023-01-01T08:19:59.408Z,100184.75
2023-01-01T08:22:26.819Z,100195.31
2023-01-01T08:24:55.521Z,100193.50
2023-01-01T08:27:22.918Z,100190.88
2023-01-01T08:29:50.330Z,100202.38
2023-01-01T08:32:17.717Z,100204.94
2023-01-01T08:34:45.079Z,100199.03
2023-01-01T08:37:12.735Z,100148.66
2023-01-01T08:39:40.161Z,100148.72
2023-01-01T08:42:12.405Z,100224.34
2023-01-01T08:44:40.154Z,100227.00
2023-01-01T08:47:07.528Z,100229.66
2023-01-01T08:49:34.915Z,100227.00
2023-01-01T08:52:02.291Z,100211.47
2023-01-01T08:54:29.670Z,100238.59
2023-01-01T08:56:57.055Z,100181.16
2023-01-01T08:59:25.946Z,100238.41
2023-01-01T09:01:53.430Z,100249.03
2023-01-01T09:04:20.916Z,100258.72
2023-01-01T09:06:48.323Z,100184.31
2023-01-01T09:09:15.702Z,100264.84
2023-01-01T09:11:51.259Z,100274.53
2023-01-01T09:14:18.716Z,100279.91
2023-01-01T09:16:47.451Z,100278.09
2023-01-01T09:19:14.869Z,100284.25
2023-01-01T09:21:42.250Z,100273.78
2023-01-01T09:24:09.765Z,100277.25
2023-01-01T09:26:37.145Z,100243.22
2023-01-01T09:29:04.612Z,100295.69
2023-01-01T09:31:32.048Z,100308.84
2023-01-01T09:34:00.807Z,100307.91
2023-01-01T09:36:29.355Z,100299.09
2023-01-01T09:38:56.873Z,100305.25
2023-01-01T09:41:28.535Z,100313.19
2023-01-01T09:43:59.662Z,100315.81
2023-01-01T09:46:31.670Z,100313.25
2023-01-01T09:49:02.423Z,100243.03
2023-01-01T09:51:31.573Z,100335.22
2023-01-01T09:54:00.254Z,100328.09
2023-01-01T09:56:28.493Z,100296.59
2023-01-01T09:58:58.764Z,100329.91
2023-01-01T10:01:33.679Z,100340.44
2023-01-01T10:04:06.478Z,100340.50
2023-01-01T10:06:34.461Z,100329.91
2023-01-01T10:09:08.661Z,100223.72
2023-01-01T10:11:40.706Z,100354.56
2023-01-01T10:14:15.163Z,100351.00
2023-01-01T10:16:43.554Z,100368.66
2023-01-01T10:19:21.372Z,100357.13
2023-01-01T10:21:49.412Z,100348.34
2023-01-01T10:24:28.643Z,100273.53
2023-01-01T10:26:56.018Z,100346.63
2023-01-01T10:29:24.941Z,100366.88
2023-01-01T10:31:55.045Z,100358.06
2023-01-01T10:34:25.849Z,100351.06
2023-01-01T10:36:54.254Z,100361.72
2023-01-01T10:39:21.660Z,100299.06
2023-01-01T10:41:49.038Z,100361.59
2023-01-01T10:44:16.959Z,100361.59
2023-01-01T10:46:45.900Z,100361.72
2023-01-01T10:49:14.598Z,100364.22
2023-01-01T10:51:45.185Z,100309.28
2023-01-01T10:54:31.137Z,100370.28
2023-01-01T10:56:59.029Z,100369.50
2023-01-01T10:59:34.200Z,100355.50
2023-01-01T11:02:15.380Z,100268.94
2023-01-01T11:04:42.918Z,100345.31
2023-01-01T11:07:15.141Z,100365.06
2023-01-01T11:09:52.158Z,100366.88
2023-01-01T11:13:03.622Z,100362.41
2023-01-01T11:15:22.274Z,100317.66
2023-01-01T11:17:49.629Z,100361.59
2023-01-01T11:20:18.502Z,100310.81
2023-01-01T11:22:48.889Z,100343.34
2023-01-01T11:25:21.515Z,100358.00
2023-01-01T11:27:48.954Z,100358.94
2023-01-01T11:30:25.081Z,100344.06
2023-01-01T11:32:55.711Z,100339.56
2023-01-01T11:35:24.460Z,100332.50
2023-01-01T11:37:53.508Z,100328.97
2023-01-01T11:40:22.987Z,100283.81
2023-01-01T11:42:51.249Z,100271.38
2023-01-01T11:45:26.854Z,100320.41
2023-01-01T11:47:56.628Z,100254.38
2023-01-01T11:50:27.193Z,100248.03
2023-01-01T11:52:58.170Z,100314.88
2023-01-01T11:55:30.431Z,100324.63
2023-01-01T11:58:00.619Z,100326.34
2023-01-01T12:00:28.040Z,100334.34
2023-01-01T12:02:57.154Z,100338.69
2023-01-01T12:05:25.455Z,100334.25
2023-01-01T12:07:52.960Z,100354.47
2023-01-01T12:10:23.909Z,100298.72
2023-01-01T12:12:52.678Z,100297.97
2023-01-01T12:15:22.854Z,100363.28
2023-01-01T12:17:50.807Z,100361.59
2023-01-01T12:20:21.279Z,100274.09
2023-01-01T12:22:48.679Z,100368.56
2023-01-01T12:25:17.203Z,100337.59
2023-01-01T12:27:57.523Z,100305.81
2023-01-01T12:30:25.920Z,100379.00
2023-01-01T12:33:18.903Z,100382.44
2023-01-01T12:36:01.936Z,100389.53
2023-01-01T12:38:38.276Z,100380.72
2023-01-01T12:41:08.147Z,100384.16
2023-01-01T12:43:39.973Z,100386.72
2023-01-01T12:46:16.557Z,100351.97
2023-01-01T12:48:53.028Z,100377.84
2023-01-01T12:51:27.002Z,100368.16
2023-01-01T12:54:00.091Z,100363.28
2023-01-01T12:56:28.419Z,100365.00
2023-01-01T12:58:58.219Z,100369.00
2023-01-01T13:01:32.826Z,100375.28
2023-01-01T13:04:01.615Z,100306.50
2023-01-01T13:06:32.393Z,100367.13
2023-01-01T13:09:01.329Z,100373.28
2023-01-01T13:11:29.108Z,100368.94
2023-01-01T13:13:57.827Z,100368.94
2023-01-01T13:16:33.630Z,100322.88
2023-01-01T13:19:02.973Z,100378.59
2023-01-01T13:21:32.427Z,100379.53
2023-01-01T13:24:03.806Z,100390.88
2023-01-01T13:26:35.228Z,100378.88
2023-01-01T13:29:43.084Z,100387.38
2023-01-01T13:32:11.915Z,100334.41
2023-01-01T13:34:55.253Z,100392.69
2023-01-01T13:37:32.855Z,100321.25
2023-01-01T13:40:00.675Z,100394.44
2023-01-01T13:42:42.287Z,100328.25
2023-01-01T13:45:30.361Z,100391.75
2023-01-01T13:48:11.405Z,100394.38
2023-01-01T13:50:43.122Z,100395.31
2023-01-01T13:53:29.315Z,100386.44
2023-01-01T13:56:13.562Z,100347.81
2023-01-01T13:59:16.906Z,100391.66
2023-01-01T14:01:50.711Z,100391.75
2023-01-01T14:04:33.636Z,100373.22
2023-01-01T14:07:13.453Z,100404.09
2023-01-01T14:09:50.145Z,100404.22
2023-01-01T14:12:18.329Z,100410.19
2023-01-01T14:14:45.762Z,100415.47
2023-01-01T14:17:15.398Z,100419.91
2023-01-01T14:19:42.909Z,100412.03
2023-01-01T14:22:10.406Z,100424.34
2023-01-01T14:24:39.738Z,100363.25
2023-01-01T14:27:07.119Z,100427.91
2023-01-01T14:29:35.628Z,100427.91
2023-01-01T14:32:13.671Z,100431.34
2023-01-01T14:34:42.682Z,100434.94
2023-01-01T14:37:21.163Z,100426.91
2023-01-01T14:39:48.554Z,100428.84
2023-01-01T14:42:16.947Z,100427.00
2023-01-01T14:44:45.214Z,100405.69
2023-01-01T14:47:19.691Z,100440.22
2023-01-01T14:49:48.417Z,100442.00
2023-01-01T14:52:18.505Z,100412.38
2023-01-01T14:54:45.752Z,100430.63
2023-01-01T14:57:16.013Z,100429.78
2023-01-01T14:59:46.751Z,100435.91
2023-01-01T15:02:15.364Z,100434.19
2023-01-01T15:04:43.078Z,100429.78
2023-01-01T15:07:20.558Z,100428.84
2023-01-01T15:09:48.003Z,100416.56
2023-01-01T15:12:17.927Z,100429.78
2023-01-01T15:14:45.739Z,100422.06
2023-01-01T15:17:13.963Z,100424.50
2023-01-01T15:19:42.417Z,100436.84
2023-01-01T15:22:10.765Z,100435.97
2023-01-01T15:24:39.640Z,100390.00
2023-01-01T15:27:08.221Z,100449.22
2023-01-01T15:29:36.877Z,100461.53
2023-01-01T15:32:04.992Z,100445.13
2023-01-01T15:34:33.058Z,100385.19
2023-01-01T15:37:08.134Z,100398.75
2023-01-01T15:39:35.566Z,100458.06
2023-01-01T15:42:04.316Z,100456.31
2023-01-01T15:44:32.364Z,100463.38
2023-01-01T15:47:10.418Z,100416.44
2023-01-01T15:49:37.839Z,100469.59
2023-01-01T15:52:06.634Z,100441.19
2023-01-01T15:54:34.202Z,100462.56
2023-01-01T15:57:01.615Z,100466.09
2023-01-01T15:59:31.582Z,100391.16
2023-01-01T16:02:07.230Z,100460.78
2023-01-01T16:04:34.710Z,100453.78
2023-01-01T16:07:02.098Z,100459.03
2023-01-01T16:09:29.485Z,100461.72
2023-01-01T16:11:59.156Z,100461.72
2023-01-01T16:14:26.524Z,100460.88
2023-01-01T16:16:57.234Z,100441.63
2023-01-01T16:19:24.775Z,100451.22
2023-01-01T16:21:52.188Z,100439.19
2023-01-01T16:24:20.112Z,100453.78
2023-01-01T16:26:47.840Z,100457.34
2023-01-01T16:29:15.383Z,100413.53
2023-01-01T16:31:43.014Z,100449.56
2023-01-01T16:34:12.859Z,100449.47
2023-01-01T16:36:40.244Z,100453.06
2023-01-01T16:39:07.635Z,100450.41
2023-01-01T16:41:35.044Z,100452.13
2023-01-01T16:44:02.457Z,100449.47
2023-01-01T16:46:30.038Z,100448.66
2023-01-01T16:48:57.876Z,100456.50
2023-01-01T16:51:28.941Z,100456.50
2023-01-01T16:53:57.238Z,100463.66
2023-01-01T16:56:24.625Z,100467.16
2023-01-01T16:59:00.279Z,100461.88
2023-01-01T17:01:30.572Z,100470.66
2023-01-01T17:03:58.141Z,100473.28
2023-01-01T17:06:26.858Z,100474.22
2023-01-01T17:08:54.237Z,100474.22
2023-01-01T17:11:22.504Z,100480.38
2023-01-01T17:13:50.003Z,100475.94
2023-01-01T17:16:23.483Z,100474.22
2023-01-01T17:21:43.704Z,100483.09
2023-01-01T17:24:11.083Z,100488.38
2023-01-01T17:26:38.490Z,100484.81
2023-01-01T17:29:07.381Z,100473.34
2023-01-01T17:31:34.862Z,100446.94
2023-01-01T17:34:02.267Z,100450.41
2023-01-01T17:36:29.662Z,100480.47
2023-01-01T17:38:58.364Z,100480.47
2023-01-01T17:41:25.787Z,100475.38
2023-01-01T17:43:53.342Z,100482.22
2023-01-01T17:46:21.824Z,100476.06
2023-01-01T17:48:49.352Z,100481.34
2023-01-01T17:51:17.095Z,100414.25
2023-01-01T17:53:44.541Z,100437.56
2023-01-01T17:56:14.408Z,100477.88
2023-01-01T17:58:42.233Z,100426.25
2023-01-01T18:01:14.642Z,100482.22
2023-01-01T18:03:42.181Z,100480.53
2023-01-01T18:06:09.617Z,100480.53
2023-01-01T18:08:36.992Z,100474.38
2023-01-01T18:11:04.427Z,100474.44
2023-01-01T18:13:33.173Z,100472.59
2023-01-01T18:16:00.991Z,100461.13
2023-01-01T18:18:28.533Z,100463.94
2023-01-01T18:21:02.153Z,100413.31
2023-01-01T18:23:32.829Z,100462.09
2023-01-01T18:26:03.153Z,100462.09
2023-01-01T18:28:30.566Z,100453.28
2023-01-01T18:31:05.085Z,100446.22
2023-01-01T18:33:32.470Z,100448.06
2023-01-01T18:36:03.640Z,100439.19
2023-01-01T18:38:31.039Z,100433.06
2023-01-01T18:41:01.847Z,100391.97
2023-01-01T18:43:29.211Z,100448.06
2023-01-01T18:45:56.777Z,100415.41
2023-01-01T18:48:25.481Z,100443.72
2023-01-01T18:50:52.873Z,100400.78
2023-01-01T18:53:23.006Z,100441.06
2023-01-01T18:55:50.871Z,100435.91
2023-01-01T18:58:19.837Z,100440.25
2023-01-01T19:00:48.228Z,100425.44
2023-01-01T19:03:17.743Z,100427.03
2023-01-01T19:05:47.486Z,100430.56
2023-01-01T19:08:16.839Z,100423.53
2023-01-01T19:10:45.192Z,100320.34
2023-01-01T19:13:17.508Z,100413.81
2023-01-01T19:15:46.092Z,100420.03
2023-01-01T19:18:18.455Z,100419.09
2023-01-01T19:20:47.194Z,100370.91
2023-01-01T19:23:18.208Z,100412.03
2023-01-01T19:25:45.659Z,100404.19
2023-01-01T19:28:33.227Z,100411.16
2023-01-01T19:31:01.488Z,100408.56
2023-01-01T19:33:29.004Z,100364.31
2023-01-01T19:35:57.777Z,100417.41
2023-01-01T19:38:25.138Z,100412.94
2023-01-01T19:40:52.525Z,100414.75
2023-01-01T19:43:19.948Z,100408.56
2023-01-01T19:45:47.322Z,100412.13
2023-01-01T19:48:14.729Z,100405.06
2023-01-01T19:50:42.087Z,100340.81
2023-01-01T19:53:10.792Z,100398.94
2023-01-01T19:55:39.946Z,100392.69
2023-01-01T19:58:07.313Z,100402.41
2023-01-01T20:00:34.764Z,100413.84
2023-01-01T20:03:26.405Z,100418.28
2023-01-01T20:05:49.508Z,100411.28
2023-01-01T20:08:18.192Z,100409.56
2023-01-01T20:10:45.562Z,100412.97
2023-01-01T20:13:12.944Z,100406.00
2023-01-01T20:15:46.339Z,100407.84
2023-01-01T20:18:14.197Z,100406.84
2023-01-01T20:21:01.943Z,100406.84
2023-01-01T20:23:30.659Z,100391.19
2023-01-01T20:25:58.076Z,100409.50
2023-01-01T20:28:42.965Z,100401.63
2023-01-01T20:31:10.367Z,100393.72
2023-01-01T20:33:37.739Z,100396.34
2023-01-01T20:36:23.088Z,100395.41
2023-01-01T20:38:51.779Z,100387.56
2023-01-01T20:41:25.060Z,100387.56
2023-01-01T20:43:52.687Z,100379.63
2023-01-01T20:46:20.104Z,100378.75
2023-01-01T20:48:47.470Z,100370.81
2023-01-01T20:51:14.857Z,100207.78
2023-01-01T20:53:42.655Z,100364.69
2023-01-01T20:56:11.357Z,100255.34
2023-01-01T20:58:42.771Z,100331.16
2023-01-01T21:01:13.542Z,100270.38
2023-01-01T21:03:41.010Z,100327.75
2023-01-01T21:06:08.446Z,100337.38
2023-01-01T21:08:35.820Z,100327.75
2023-01-01T21:11:03.259Z,100319.81
2023-01-01T21:13:31.963Z,100322.47
2023-01-01T21:16:00.342Z,100319.81
2023-01-01T21:18:27.738Z,100307.97
2023-01-01T21:20:55.092Z,100306.59
2023-01-01T21:23:24.328Z,100224.16
2023-01-01T21:25:52.324Z,100294.28
2023-01-01T21:28:19.863Z,100306.66
2023-01-01T21:30:50.914Z,100252.53
2023-01-01T21:33:23.554Z,100291.63
2023-01-01T21:35:50.924Z,100291.63
2023-01-01T21:38:20.074Z,100264.78
2023-01-01T21:40:51.265Z,100247.81
2023-01-01T21:43:34.383Z,100187.47
2023-01-01T21:46:42.591Z,100265.19
2023-01-01T21:49:15.671Z,100269.66
2023-01-01T21:51:46.114Z,100201.03
2023-01-01T21:54:18.128Z,100211.03
2023-01-01T21:56:50.282Z,100258.19
2023-01-01T21:59:27.477Z,100240.63
2023-01-01T22:01:55.266Z,100234.47
2023-01-01T22:04:24.717Z,100232.69
2023-01-01T22:06:53.425Z,100164.94
2023-01-01T22:09:23.174Z,100144.63
2023-01-01T22:11:51.011Z,100229.19
2023-01-01T22:14:19.094Z,100230.06
2023-01-01T22:16:47.111Z,100239.78
2023-01-01T22:19:17.290Z,100211.22
2023-01-01T22:21:45.940Z,100229.25
2023-01-01T22:24:25.786Z,100231.91
2023-01-01T22:26:53.167Z,100227.56
2023-01-01T22:29:23.935Z,100225.69
2023-01-01T22:31:54.677Z,100227.50
2023-01-01T22:34:23.165Z,100221.34
2023-01-01T22:36:51.860Z,100222.19
2023-01-01T22:39:23.341Z,100217.81
2023-01-01T22:41:50.715Z,100216.03
2023-01-01T22:44:18.123Z,100212.53
2023-01-01T22:46:45.781Z,100134.56
2023-01-01T22:49:18.419Z,100206.34
2023-01-01T22:51:46.069Z,100150.63
2023-01-01T22:54:14.772Z,100201.88
2023-01-01T22:56:42.140Z,100205.47
2023-01-01T22:59:09.533Z,100145.47
2023-01-01T23:01:36.994Z,100148.13
2023-01-01T23:04:04.681Z,100216.91
2023-01-01T23:06:32.762Z,100208.97
2023-01-01T23:09:00.176Z,100201.06
2023-01-01T23:11:29.156Z,100195.75
2023-01-01T23:14:14.451Z,100203.69
2023-01-01T23:16:41.812Z,100190.69
2023-01-01T23:19:09.205Z,100194.03
2023-01-01T23:21:36.605Z,100186.97
2023-01-01T23:24:05.076Z,100144.97
2023-01-01T23:26:33.764Z,100177.34
2023-01-01T23:29:01.299Z,100173.81
2023-01-01T23:31:28.713Z,100165.22
2023-01-01T23:33:56.229Z,100145.56
2023-01-01T23:36:23.746Z,100174.75
2023-01-01T23:38:51.161Z,100172.94
2023-01-01T23:41:18.599Z,100107.91
2023-01-01T23:43:47.321Z,100169.41
2023-01-01T23:46:14.781Z,100135.63
2023-01-01T23:48:42.296Z,100068.25
2023-01-01T23:51:09.692Z,100154.44
2023-01-01T23:53:37.069Z,100139.69
2023-01-01T23:56:04.741Z,100136.03
2023-01-01T23:58:32.159Z,100134.25
